KLSV/LSV METAR and TAF weather

Enter ICAO airport designator
Station Type Date Time Source
KLSV METAR 2019/11/21 02:55 UTC NOAA

KLSV 210255Z 10006KT 10SM FEW060 BKN100 13/05 A2959 RMK AO2 SLP012 T01260048 53031


Station Type Date Time Source
KLSV Decoded METAR 2019/11/21 02:55 UTC NOAA

Nellis Air Force Base, NV, United States (KLSV) 36-14N 115-02W
Nov 20, 2019 - 09:55 PM EST / 2019.11.21 0255 UTC
Wind: from the E (100 degrees) at 7 MPH (6 KT):0
Visibility: 10 mile(s):0
Sky conditions: mostly cloudy
Temperature: 54.7 F (12.6 C)
Dew Point: 40.6 F (4.8 C)
Relative Humidity: 58%
Pressure (altimeter): 29.59 in. Hg (1002 hPa)
Pressure tendency: 0.09 inches (3.1 hPa) higher than three hours ago
ob: KLSV 210255Z 10006KT 10SM FEW060 BKN100 13/05 A2959 RMK AO2 SLP012 T01260048 53031
cycle: 3

Station Type Date Time Source
KLSV TAF 2019/11/21 01:59 UTC NOAA

TAF
AMD KLSV 210145Z 2101/2205 15009KT 9999 VCSH BKN110 QNH2949INS
TEMPO 2101/2102 18015G25KT 520009
BECMG 2103/2104 19012KT 9000 -SHRA BKN030 BKN100 620609 QNH2960INS
BECMG 2119/2120 09009KT 9999 NSW BKN050 620609 QNH2988INS TX14/2101Z TN08/2112Z

Example: see airport list